Safford, AZ

12:59 PM MST on July 24, 2014 (GMT -0700)
Safford Regional (KSAD) Elev 3176 ft | 32.86 °N, 109.64 °W | Change Station

Current weather conditions updated 8 minutes ago

Clear
Clear
100 °F
Feels Like 100 °F
N
18
Wind Variable Wind from ESE
Gusts 23 mph

Today is forecast to be nearly the same temperature as yesterday.

Today
High -- | Low -- °F
--% Chance of Precip.
Yesterday
High -- | Low -- °F
Precip. -- in
5:27 AM 7:23 PM
Waning Crescent, 4% visible
Pressure 29.84 in
Visibility 10.0 miles
Clouds Clear
Dew Point 43 °F
Humidity 14%
Rainfall 0.00 in
Snow Depth Not available.
UV 13 out of 12
Pollen 5.10 out of 12
Air Quality Not available.
Flu Activity Not available.
METAR KSAD 241951Z AUTO 12016G20KT 10SM CLR 38/06 A3003 RMK AO2 SLP103 T03780061

More Conditions Fewer Conditions

Pressure 29.84 in
Visibility 10.0 miles
Clouds Clear
Dew Point 43 °F
Humidity 14%
Rainfall 0.00 in
Snow Depth Not available.
UV 13 out of 12
Pollen 5.10 out of 12
Air Quality Not available.
Flu Activity Not available.
METAR KSAD 241951Z AUTO 12016G20KT 10SM CLR 38/06 A3003 RMK AO2 SLP103 T03780061

More Conditions Fewer Conditions

10-Day Weather Forecast

Almanac

Astronomy

Jul. 24, 2014 Rise Set
Actual Time 5:27 AM MST 7:23 PM MST
Civil Twilight 4:59 AM MST 7:50 PM MST
Nautical Twilight 4:26 AM MST 8:23 PM MST
Astronomical Twilight 3:51 AM MST 8:58 PM MST
Moon 3:36 AM MST 5:42 PM MST
Length of Visible Light 14h 50m
Length of Day
13h 55m
Tomorrow will be 1m 18s shorter.
Waning Crescent, 4% of the Moon is Illuminated
Today
Waning Crescent
Jul 26
New
Aug 3
First Quarter
Aug 10
Full
Aug 17
Last Quarter

Today's Extremes

State Highs State Lows

Community

WunderPhotos

Upload Photos

1,737,097 photos uploaded!

Nearby

Snow Depth

Station Depth Elevation
Beaver Head 0 in 7990 ft
Workman Creek 0 in 6900 ft
White Horse Lake 0 in 7180 ft
Snowslide Canyon 0 in 9730 ft

Earthquake Activity

City Distance Mag. Time & Date
No recent earthquake activity has been reported nearby.
Minimum magnitude displayed is 2.5.

Coastal Water Temperatures

Place Temperature
No Stations Reporting

Nearby Weather Stations

Station Location Temp. Heat Index Dew Point Humidity Wind Precip. Elev Updated Type
RAWS BLACK HILLS AZ, Fort Thomas, AZ 98 °F 94 °F 46 °F 17% SE  at  13 mph 0.00 in / hr 3352 ft 11:53 AM MST MADIS
RAWS NOON CREEK AZ, Safford, AZ 90 °F 87 °F 47 °F 23% East  at  8 mph 0.00 in / hr 4924 ft 11:37 AM MST MADIS
RAWS GUTHRIE AZ, Morenci, AZ 87 °F 84 °F 45 °F 23% East  at  10 mph 0.00 in / hr 6339 ft 12:03 PM MST MADIS
RAWS COLUMBINE AZ, Thatcher, AZ 69 °F - 44 °F 41% ESE  at  3 mph 0.00 in / hr 9521 ft 12:02 PM MST MADIS
MGIO, Safford, AZ 57.5 °F - 40 °F 53% South  at  3.0 mph 0.00 in / hr 10420 ft 12:52 PM MST Normal

Show More Stations Show Fewer Stations